Weather at Ringwood Airport

Public forecast

Using degrees Celsius for public forecast. Weather courtesy of forecast.io.

Closest aviation weather report (METAR) to Ringwood Airport

Closest report is Alice Springs Airport, 58.2 nm (107.9 km) W. Retrieved 2021/06/25 04:00 UTC (39 minutes ago):

YBAS 250400Z AUTO 17011KT 9999 // SCT040 14/04 Q1023

Closest aviation forecast (TAF) to Ringwood Airport

Closest forecast is Alice Springs Airport, 58.2 nm (107.9 km) W. Retrieved 2021-06-25 00:00 UTC (5 hours ago):

TAF YBAS 242303Z 2500/2600 16010KT 9999 FEW045 FM250830 16006KT 9999 FEW050 FM251500 27005KT 9999 SCT040